sensor_id;sensor_type;location;lat;lon;timestamp;pressure;altitude;pressure_sealevel;temperature;humidity
64632;BME280;58358;50.936;0.246;2022-07-06T00:01:36;102132.19;;;13.56;54.95
64632;BME280;58358;50.936;0.246;2022-07-06T00:04:01;102131.62;;;13.15;55.22
64632;BME280;58358;50.936;0.246;2022-07-06T00:06:26;102134.38;;;13.68;54.77
64632;BME280;58358;50.936;0.246;2022-07-06T00:08:51;102137.08;;;14.03;53.94
64632;BME280;58358;50.936;0.246;2022-07-06T00:11:17;102142.83;;;12.98;55.73
64632;BME280;58358;50.936;0.246;2022-07-06T00:13:42;102143.20;;;13.18;57.01
64632;BME280;58358;50.936;0.246;2022-07-06T00:16:07;102140.93;;;12.01;58.71
64632;BME280;58358;50.936;0.246;2022-07-06T00:18:32;102139.94;;;11.89;59.26
64632;BME280;58358;50.936;0.246;2022-07-06T00:20:58;102140.45;;;13.13;57.08
64632;BME280;58358;50.936;0.246;2022-07-06T00:23:23;102138.41;;;12.96;57.28
64632;BME280;58358;50.936;0.246;2022-07-06T00:25:49;102141.24;;;11.10;61.03
64632;BME280;58358;50.936;0.246;2022-07-06T00:28:15;102144.54;;;11.37;60.42
64632;BME280;58358;50.936;0.246;2022-07-06T00:30:40;102145.47;;;12.05;59.39
64632;BME280;58358;50.936;0.246;2022-07-06T00:33:06;102152.48;;;11.61;60.27
64632;BME280;58358;50.936;0.246;2022-07-06T00:35:31;102150.01;;;12.31;59.38
64632;BME280;58358;50.936;0.246;2022-07-06T00:37:57;102152.82;;;11.53;61.30
64632;BME280;58358;50.936;0.246;2022-07-06T00:40:22;102150.24;;;12.33;58.37
64632;BME280;58358;50.936;0.246;2022-07-06T00:42:48;102146.47;;;13.00;57.71
64632;BME280;58358;50.936;0.246;2022-07-06T00:45:15;102140.33;;;13.81;55.29
64632;BME280;58358;50.936;0.246;2022-07-06T00:47:40;102143.50;;;12.75;57.23
64632;BME280;58358;50.936;0.246;2022-07-06T00:50:06;102141.82;;;11.87;59.45
64632;BME280;58358;50.936;0.246;2022-07-06T00:52:30;102139.79;;;12.68;57.79
64632;BME280;58358;50.936;0.246;2022-07-06T00:54:55;102140.51;;;13.43;56.26
64632;BME280;58358;50.936;0.246;2022-07-06T00:57:20;102145.23;;;10.45;63.24
64632;BME280;58358;50.936;0.246;2022-07-06T00:59:46;102143.77;;;11.13;61.94
64632;BME280;58358;50.936;0.246;2022-07-06T01:02:11;102141.68;;;11.83;59.95
64632;BME280;58358;50.936;0.246;2022-07-06T01:04:37;102139.69;;;12.61;58.26
64632;BME280;58358;50.936;0.246;2022-07-06T01:07:03;102134.03;;;12.76;58.15
64632;BME280;58358;50.936;0.246;2022-07-06T01:09:27;102138.57;;;13.19;56.49
64632;BME280;58358;50.936;0.246;2022-07-06T01:11:53;102140.80;;;11.27;61.89
64632;BME280;58358;50.936;0.246;2022-07-06T01:14:19;102137.53;;;12.57;58.59
64632;BME280;58358;50.936;0.246;2022-07-06T01:16:44;102140.86;;;11.54;59.67
64632;BME280;58358;50.936;0.246;2022-07-06T01:19:09;102136.20;;;12.38;57.95
64632;BME280;58358;50.936;0.246;2022-07-06T01:21:37;102135.21;;;12.89;57.09
64632;BME280;58358;50.936;0.246;2022-07-06T01:24:00;102131.82;;;12.71;57.02
64632;BME280;58358;50.936;0.246;2022-07-06T01:26:25;102133.56;;;12.70;56.93
64632;BME280;58358;50.936;0.246;2022-07-06T01:28:51;102132.36;;;12.71;56.43
64632;BME280;58358;50.936;0.246;2022-07-06T01:31:18;102136.20;;;12.31;58.12
64632;BME280;58358;50.936;0.246;2022-07-06T01:33:41;102143.71;;;11.19;59.39
64632;BME280;58358;50.936;0.246;2022-07-06T01:36:07;102144.95;;;12.46;58.42
64632;BME280;58358;50.936;0.246;2022-07-06T01:38:32;102148.15;;;12.42;57.85
64632;BME280;58358;50.936;0.246;2022-07-06T01:40:57;102153.40;;;12.40;57.40
64632;BME280;58358;50.936;0.246;2022-07-06T01:43:23;102150.19;;;12.47;56.18
64632;BME280;58358;50.936;0.246;2022-07-06T01:45:48;102140.49;;;12.20;57.50
64632;BME280;58358;50.936;0.246;2022-07-06T01:48:14;102136.27;;;11.96;57.50
64632;BME280;58358;50.936;0.246;2022-07-06T01:50:39;102145.54;;;11.50;58.54
64632;BME280;58358;50.936;0.246;2022-07-06T01:53:05;102143.41;;;10.89;59.68
64632;BME280;58358;50.936;0.246;2022-07-06T01:55:31;102130.66;;;12.23;57.28
64632;BME280;58358;50.936;0.246;2022-07-06T01:57:56;102125.74;;;11.42;59.20
64632;BME280;58358;50.936;0.246;2022-07-06T02:00:21;102124.89;;;10.71;61.14
64632;BME280;58358;50.936;0.246;2022-07-06T02:02:47;102124.72;;;11.30;59.80
64632;BME280;58358;50.936;0.246;2022-07-06T02:05:12;102130.70;;;10.87;60.08
64632;BME280;58358;50.936;0.246;2022-07-06T02:07:38;102129.65;;;11.12;58.89
64632;BME280;58358;50.936;0.246;2022-07-06T02:10:05;102130.97;;;11.75;58.37
64632;BME280;58358;50.936;0.246;2022-07-06T02:12:28;102130.29;;;11.73;57.89
64632;BME280;58358;50.936;0.246;2022-07-06T02:14:54;102127.22;;;12.29;56.35
64632;BME280;58358;50.936;0.246;2022-07-06T02:17:20;102134.31;;;11.94;57.17
64632;BME280;58358;50.936;0.246;2022-07-06T02:19:45;102137.01;;;10.24;60.56
64632;BME280;58358;50.936;0.246;2022-07-06T02:22:11;102136.91;;;11.50;58.71
64632;BME280;58358;50.936;0.246;2022-07-06T02:24:37;102136.37;;;11.83;57.32
64632;BME280;58358;50.936;0.246;2022-07-06T02:27:03;102135.08;;;11.74;57.44
64632;BME280;58358;50.936;0.246;2022-07-06T02:29:28;102135.38;;;10.65;58.93
64632;BME280;58358;50.936;0.246;2022-07-06T02:31:54;102140.18;;;10.21;61.41
64632;BME280;58358;50.936;0.246;2022-07-06T02:34:19;102138.64;;;10.27;60.91
64632;BME280;58358;50.936;0.246;2022-07-06T02:36:44;102141.39;;;11.07;58.44
64632;BME280;58358;50.936;0.246;2022-07-06T02:39:10;102139.65;;;10.57;60.88
64632;BME280;58358;50.936;0.246;2022-07-06T02:41:36;102142.07;;;10.36;60.38
64632;BME280;58358;50.936;0.246;2022-07-06T02:44:01;102144.48;;;10.83;59.85
64632;BME280;58358;50.936;0.246;2022-07-06T02:46:26;102143.52;;;10.82;59.29
64632;BME280;58358;50.936;0.246;2022-07-06T02:48:52;102147.84;;;8.97;63.49
64632;BME280;58358;50.936;0.246;2022-07-06T02:51:18;102151.85;;;11.60;57.69
64632;BME280;58358;50.936;0.246;2022-07-06T02:53:43;102147.74;;;10.42;60.37
64632;BME280;58358;50.936;0.246;2022-07-06T02:56:08;102153.22;;;11.12;58.87
64632;BME280;58358;50.936;0.246;2022-07-06T02:58:34;102157.07;;;10.79;58.85
64632;BME280;58358;50.936;0.246;2022-07-06T03:00:59;102161.17;;;9.30;61.94
64632;BME280;58358;50.936;0.246;2022-07-06T03:03:24;102164.37;;;11.03;58.74
64632;BME280;58358;50.936;0.246;2022-07-06T03:05:50;102167.24;;;8.46;63.81
64632;BME280;58358;50.936;0.246;2022-07-06T03:08:16;102167.31;;;11.01;58.66
64632;BME280;58358;50.936;0.246;2022-07-06T03:10:41;102169.18;;;11.32;56.93
64632;BME280;58358;50.936;0.246;2022-07-06T03:13:07;102166.99;;;10.63;57.99
64632;BME280;58358;50.936;0.246;2022-07-06T03:15:32;102171.40;;;11.13;57.33
64632;BME280;58358;50.936;0.246;2022-07-06T03:17:58;102170.14;;;11.80;55.91
64632;BME280;58358;50.936;0.246;2022-07-06T03:20:24;102165.01;;;10.88;58.40
64632;BME280;58358;50.936;0.246;2022-07-06T03:22:49;102163.05;;;11.31;56.93
64632;BME280;58358;50.936;0.246;2022-07-06T03:25:15;102162.51;;;11.01;58.09
64632;BME280;58358;50.936;0.246;2022-07-06T03:27:41;102158.22;;;10.28;58.26
64632;BME280;58358;50.936;0.246;2022-07-06T03:30:07;102161.45;;;11.11;56.55
64632;BME280;58358;50.936;0.246;2022-07-06T03:32:32;102160.37;;;10.73;57.90
64632;BME280;58358;50.936;0.246;2022-07-06T03:34:58;102156.28;;;11.04;56.82
64632;BME280;58358;50.936;0.246;2022-07-06T03:37:23;102155.33;;;12.13;54.48
64632;BME280;58358;50.936;0.246;2022-07-06T03:39:49;102162.56;;;11.57;55.51
64632;BME280;58358;50.936;0.246;2022-07-06T03:42:15;102169.12;;;12.11;54.34
64632;BME280;58358;50.936;0.246;2022-07-06T03:44:40;102168.07;;;11.15;55.56
64632;BME280;58358;50.936;0.246;2022-07-06T03:47:06;102166.00;;;11.44;55.60
64632;BME280;58358;50.936;0.246;2022-07-06T03:49:32;102160.26;;;10.90;57.74
64632;BME280;58358;50.936;0.246;2022-07-06T03:51:58;102163.91;;;11.21;57.33
64632;BME280;58358;50.936;0.246;2022-07-06T03:54:24;102159.99;;;10.93;56.55
64632;BME280;58358;50.936;0.246;2022-07-06T03:56:49;102158.58;;;10.25;57.58
64632;BME280;58358;50.936;0.246;2022-07-06T03:59:15;102158.83;;;9.91;57.93
64632;BME280;58358;50.936;0.246;2022-07-06T04:01:41;102156.77;;;10.33;58.99
64632;BME280;58358;50.936;0.246;2022-07-06T04:04:07;102155.04;;;11.41;55.59
64632;BME280;58358;50.936;0.246;2022-07-06T04:06:33;102149.89;;;11.26;55.68
64632;BME280;58358;50.936;0.246;2022-07-06T04:08:58;102142.03;;;10.28;57.39
64632;BME280;58358;50.936;0.246;2022-07-06T04:11:24;102141.82;;;12.00;54.95
64632;BME280;58358;50.936;0.246;2022-07-06T04:13:50;102138.91;;;10.38;57.54
64632;BME280;58358;50.936;0.246;2022-07-06T04:16:16;102139.31;;;11.66;55.44
64632;BME280;58358;50.936;0.246;2022-07-06T04:18:41;102142.52;;;10.86;55.87
64632;BME280;58358;50.936;0.246;2022-07-06T04:21:07;102142.94;;;11.12;56.07
64632;BME280;58358;50.936;0.246;2022-07-06T04:23:33;102145.11;;;11.12;55.81
64632;BME280;58358;50.936;0.246;2022-07-06T04:25:59;102145.97;;;12.29;53.14
64632;BME280;58358;50.936;0.246;2022-07-06T04:28:25;102152.35;;;11.77;54.33
64632;BME280;58358;50.936;0.246;2022-07-06T04:30:50;102148.83;;;11.69;54.52
64632;BME280;58358;50.936;0.246;2022-07-06T04:33:16;102151.77;;;10.89;55.70
64632;BME280;58358;50.936;0.246;2022-07-06T04:35:42;102146.01;;;11.27;55.15
64632;BME280;58358;50.936;0.246;2022-07-06T04:38:08;102137.57;;;12.14;53.48
64632;BME280;58358;50.936;0.246;2022-07-06T04:40:33;102138.86;;;11.51;55.53
64632;BME280;58358;50.936;0.246;2022-07-06T04:42:59;102138.02;;;10.87;56.64
64632;BME280;58358;50.936;0.246;2022-07-06T04:45:25;102136.00;;;11.78;54.80
64632;BME280;58358;50.936;0.246;2022-07-06T04:47:51;102135.03;;;11.03;56.05
64632;BME280;58358;50.936;0.246;2022-07-06T04:50:17;102138.83;;;11.16;56.19
64632;BME280;58358;50.936;0.246;2022-07-06T04:52:42;102141.83;;;12.11;53.98
64632;BME280;58358;50.936;0.246;2022-07-06T04:55:08;102149.73;;;11.98;54.74
64632;BME280;58358;50.936;0.246;2022-07-06T04:57:34;102150.76;;;12.44;53.65
64632;BME280;58358;50.936;0.246;2022-07-06T05:00:00;102155.30;;;12.44;52.84
64632;BME280;58358;50.936;0.246;2022-07-06T05:02:25;102155.31;;;13.21;51.19
64632;BME280;58358;50.936;0.246;2022-07-06T05:04:52;102157.63;;;12.95;50.70
64632;BME280;58358;50.936;0.246;2022-07-06T05:07:17;102157.30;;;13.49;50.00
64632;BME280;58358;50.936;0.246;2022-07-06T05:09:43;102155.99;;;13.40;49.87
64632;BME280;58358;50.936;0.246;2022-07-06T05:12:10;102159.49;;;14.07;48.54
64632;BME280;58358;50.936;0.246;2022-07-06T05:14:34;102160.42;;;14.46;48.68
64632;BME280;58358;50.936;0.246;2022-07-06T05:17:00;102165.38;;;13.38;49.47
64632;BME280;58358;50.936;0.246;2022-07-06T05:19:26;102168.58;;;13.49;51.08
64632;BME280;58358;50.936;0.246;2022-07-06T05:21:52;102170.28;;;12.76;51.82
64632;BME280;58358;50.936;0.246;2022-07-06T05:24:17;102173.68;;;13.58;49.75
64632;BME280;58358;50.936;0.246;2022-07-06T05:26:43;102173.86;;;14.02;49.21
64632;BME280;58358;50.936;0.246;2022-07-06T05:29:09;102173.98;;;14.80;47.65
64632;BME280;58358;50.936;0.246;2022-07-06T05:31:35;102176.02;;;14.68;47.75
64632;BME280;58358;50.936;0.246;2022-07-06T05:34:00;102175.94;;;13.60;50.25
64632;BME280;58358;50.936;0.246;2022-07-06T05:36:26;102180.74;;;14.84;49.37
64632;BME280;58358;50.936;0.246;2022-07-06T05:38:52;102179.09;;;13.97;50.03
64632;BME280;58358;50.936;0.246;2022-07-06T05:41:18;102177.77;;;14.27;49.03
64632;BME280;58358;50.936;0.246;2022-07-06T05:43:43;102178.47;;;14.82;48.28
64632;BME280;58358;50.936;0.246;2022-07-06T05:46:09;102178.35;;;14.94;47.85
64632;BME280;58358;50.936;0.246;2022-07-06T05:48:35;102179.75;;;15.31;46.98
64632;BME280;58358;50.936;0.246;2022-07-06T05:51:01;102181.09;;;14.64;48.38
64632;BME280;58358;50.936;0.246;2022-07-06T05:53:26;102184.22;;;13.00;51.47
64632;BME280;58358;50.936;0.246;2022-07-06T05:55:52;102187.19;;;12.10;54.43
64632;BME280;58358;50.936;0.246;2022-07-06T05:58:18;102178.39;;;12.51;53.35
64632;BME280;58358;50.936;0.246;2022-07-06T06:00:43;102174.86;;;12.87;54.04
64632;BME280;58358;50.936;0.246;2022-07-06T06:03:09;102168.07;;;12.80;53.71
64632;BME280;58358;50.936;0.246;2022-07-06T06:05:35;102173.43;;;12.71;54.11
64632;BME280;58358;50.936;0.246;2022-07-06T06:08:01;102181.12;;;13.58;51.39
64632;BME280;58358;50.936;0.246;2022-07-06T06:10:27;102190.20;;;13.86;51.05
64632;BME280;58358;50.936;0.246;2022-07-06T06:12:52;102189.42;;;13.48;52.07
64632;BME280;58358;50.936;0.246;2022-07-06T06:15:18;102194.83;;;13.51;51.68
64632;BME280;58358;50.936;0.246;2022-07-06T06:17:44;102196.78;;;13.18;52.30
64632;BME280;58358;50.936;0.246;2022-07-06T06:20:11;102198.71;;;13.56;51.95
64632;BME280;58358;50.936;0.246;2022-07-06T06:22:46;102197.82;;;14.43;49.64
64632;BME280;58358;50.936;0.246;2022-07-06T06:25:01;102193.09;;;14.29;49.71
64632;BME280;58358;50.936;0.246;2022-07-06T06:27:27;102190.08;;;14.80;48.68
64632;BME280;58358;50.936;0.246;2022-07-06T06:29:52;102192.65;;;15.58;47.66
64632;BME280;58358;50.936;0.246;2022-07-06T06:32:18;102197.87;;;14.77;48.38
64632;BME280;58358;50.936;0.246;2022-07-06T06:34:44;102199.97;;;15.66;46.82
64632;BME280;58358;50.936;0.246;2022-07-06T06:37:09;102196.88;;;15.19;47.13
64632;BME280;58358;50.936;0.246;2022-07-06T06:39:35;102194.29;;;15.79;46.89
64632;BME280;58358;50.936;0.246;2022-07-06T06:42:01;102191.67;;;15.35;47.05
64632;BME280;58358;50.936;0.246;2022-07-06T06:44:26;102194.46;;;16.40;45.89
64632;BME280;58358;50.936;0.246;2022-07-06T06:46:52;102198.59;;;15.64;46.24
64632;BME280;58358;50.936;0.246;2022-07-06T06:49:18;102195.13;;;17.27;43.92
64632;BME280;58358;50.936;0.246;2022-07-06T06:51:44;102195.30;;;16.41;45.32
64632;BME280;58358;50.936;0.246;2022-07-06T06:54:09;102194.38;;;16.84;44.63
64632;BME280;58358;50.936;0.246;2022-07-06T06:56:35;102190.69;;;16.16;46.40
64632;BME280;58358;50.936;0.246;2022-07-06T06:59:00;102195.31;;;16.37;45.96
64632;BME280;58358;50.936;0.246;2022-07-06T07:01:26;102198.61;;;16.40;45.98
64632;BME280;58358;50.936;0.246;2022-07-06T07:03:52;102199.20;;;16.01;47.51
64632;BME280;58358;50.936;0.246;2022-07-06T07:06:17;102205.53;;;16.21;47.85
64632;BME280;58358;50.936;0.246;2022-07-06T07:08:43;102195.56;;;15.06;49.53
64632;BME280;58358;50.936;0.246;2022-07-06T07:11:09;102201.85;;;15.89;48.59
64632;BME280;58358;50.936;0.246;2022-07-06T07:13:34;102204.78;;;15.37;50.63
64632;BME280;58358;50.936;0.246;2022-07-06T07:16:00;102206.01;;;15.82;49.55
64632;BME280;58358;50.936;0.246;2022-07-06T07:18:25;102207.94;;;15.28;52.30
64632;BME280;58358;50.936;0.246;2022-07-06T07:20:52;102210.32;;;15.78;50.26
64632;BME280;58358;50.936;0.246;2022-07-06T07:23:17;102213.80;;;16.53;49.18
64632;BME280;58358;50.936;0.246;2022-07-06T07:25:42;102210.00;;;16.23;49.41
64632;BME280;58358;50.936;0.246;2022-07-06T07:28:08;102213.82;;;16.13;49.65
64632;BME280;58358;50.936;0.246;2022-07-06T07:30:34;102211.89;;;14.63;53.38
64632;BME280;58358;50.936;0.246;2022-07-06T07:32:59;102217.37;;;15.64;51.22
64632;BME280;58358;50.936;0.246;2022-07-06T07:35:24;102219.44;;;16.70;48.92
64632;BME280;58358;50.936;0.246;2022-07-06T07:37:50;102218.89;;;17.01;48.26
64632;BME280;58358;50.936;0.246;2022-07-06T07:40:16;102215.65;;;17.13;47.66
64632;BME280;58358;50.936;0.246;2022-07-06T07:42:42;102213.58;;;16.38;49.52
64632;BME280;58358;50.936;0.246;2022-07-06T07:45:07;102211.00;;;16.65;49.73
64632;BME280;58358;50.936;0.246;2022-07-06T07:47:33;102204.49;;;18.25;45.89
64632;BME280;58358;50.936;0.246;2022-07-06T07:49:58;102201.20;;;16.31;50.89
64632;BME280;58358;50.936;0.246;2022-07-06T07:52:24;102196.46;;;16.22;49.65
64632;BME280;58358;50.936;0.246;2022-07-06T07:54:49;102204.25;;;16.76;49.56
64632;BME280;58358;50.936;0.246;2022-07-06T07:57:15;102197.95;;;15.61;52.70
64632;BME280;58358;50.936;0.246;2022-07-06T07:59:41;102199.78;;;15.45;52.50
64632;BME280;58358;50.936;0.246;2022-07-06T08:02:06;102204.01;;;15.51;52.85
64632;BME280;58358;50.936;0.246;2022-07-06T08:04:32;102207.35;;;16.30;51.87
64632;BME280;58358;50.936;0.246;2022-07-06T08:06:58;102203.37;;;16.05;52.06
64632;BME280;58358;50.936;0.246;2022-07-06T08:09:23;102199.58;;;16.08;52.22
64632;BME280;58358;50.936;0.246;2022-07-06T08:11:49;102200.07;;;16.72;50.95
64632;BME280;58358;50.936;0.246;2022-07-06T08:14:15;102188.88;;;16.00;52.43
64632;BME280;58358;50.936;0.246;2022-07-06T08:16:41;102192.33;;;16.34;50.38
64632;BME280;58358;50.936;0.246;2022-07-06T08:19:06;102183.24;;;16.85;50.58
64632;BME280;58358;50.936;0.246;2022-07-06T08:21:32;102188.99;;;16.86;50.72
64632;BME280;58358;50.936;0.246;2022-07-06T08:23:57;102186.48;;;16.48;50.57
64632;BME280;58358;50.936;0.246;2022-07-06T08:26:23;102190.35;;;16.78;49.61
64632;BME280;58358;50.936;0.246;2022-07-06T08:28:49;102188.68;;;17.26;49.18
64632;BME280;58358;50.936;0.246;2022-07-06T08:31:14;102187.01;;;17.89;47.48
64632;BME280;58358;50.936;0.246;2022-07-06T08:33:40;102191.31;;;17.71;47.68
64632;BME280;58358;50.936;0.246;2022-07-06T08:36:06;102191.79;;;17.11;49.57
64632;BME280;58358;50.936;0.246;2022-07-06T08:38:32;102199.57;;;17.27;49.79
64632;BME280;58358;50.936;0.246;2022-07-06T08:40:58;102202.27;;;17.24;49.87
64632;BME280;58358;50.936;0.246;2022-07-06T08:43:23;102204.38;;;18.35;47.31
64632;BME280;58358;50.936;0.246;2022-07-06T08:45:49;102201.54;;;17.79;48.25
64632;BME280;58358;50.936;0.246;2022-07-06T08:48:14;102201.51;;;17.59;47.96
64632;BME280;58358;50.936;0.246;2022-07-06T08:50:39;102195.84;;;17.33;49.16
64632;BME280;58358;50.936;0.246;2022-07-06T08:53:05;102187.28;;;16.89;50.15
64632;BME280;58358;50.936;0.246;2022-07-06T08:55:31;102190.12;;;17.80;47.96
64632;BME280;58358;50.936;0.246;2022-07-06T08:57:57;102178.52;;;17.13;49.02
64632;BME280;58358;50.936;0.246;2022-07-06T09:00:22;102172.81;;;18.50;46.44
64632;BME280;58358;50.936;0.246;2022-07-06T09:02:49;102169.50;;;18.93;45.37
64632;BME280;58358;50.936;0.246;2022-07-06T09:05:14;102168.12;;;17.32;48.24
64632;BME280;58358;50.936;0.246;2022-07-06T09:07:40;102165.05;;;18.11;47.71
64632;BME280;58358;50.936;0.246;2022-07-06T09:10:06;102175.66;;;18.27;48.25
64632;BME280;58358;50.936;0.246;2022-07-06T09:12:30;102175.92;;;17.73;49.49
64632;BME280;58358;50.936;0.246;2022-07-06T09:14:55;102175.17;;;17.30;49.59
64632;BME280;58358;50.936;0.246;2022-07-06T09:17:20;102174.58;;;17.61;50.47
64632;BME280;58358;50.936;0.246;2022-07-06T09:19:46;102174.56;;;17.52;49.50
64632;BME280;58358;50.936;0.246;2022-07-06T09:22:25;102161.71;;;16.97;50.92
64632;BME280;58358;50.936;0.246;2022-07-06T09:24:42;102167.58;;;17.14;50.61
64632;BME280;58358;50.936;0.246;2022-07-06T09:27:03;102171.67;;;17.99;49.04
64632;BME280;58358;50.936;0.246;2022-07-06T09:29:29;102165.88;;;18.30;48.35
64632;BME280;58358;50.936;0.246;2022-07-06T09:31:58;102164.19;;;18.22;48.63
64632;BME280;58358;50.936;0.246;2022-07-06T09:34:19;102162.62;;;19.23;46.34
64632;BME280;58358;50.936;0.246;2022-07-06T09:36:47;102163.37;;;18.34;48.40
64632;BME280;58358;50.936;0.246;2022-07-06T09:39:16;102163.66;;;18.24;48.82
64632;BME280;58358;50.936;0.246;2022-07-06T09:41:36;102159.41;;;18.33;48.36
64632;BME280;58358;50.936;0.246;2022-07-06T09:44:01;102158.49;;;17.18;50.78
64632;BME280;58358;50.936;0.246;2022-07-06T09:46:27;102158.13;;;17.91;50.16
64632;BME280;58358;50.936;0.246;2022-07-06T09:48:53;102162.57;;;18.71;49.45
64632;BME280;58358;50.936;0.246;2022-07-06T09:51:20;102171.11;;;17.85;51.00
64632;BME280;58358;50.936;0.246;2022-07-06T09:53:43;102171.76;;;18.50;48.71
64632;BME280;58358;50.936;0.246;2022-07-06T09:56:09;102163.66;;;19.73;45.67
64632;BME280;58358;50.936;0.246;2022-07-06T09:58:38;102164.97;;;19.58;45.98
64632;BME280;58358;50.936;0.246;2022-07-06T10:01:00;102169.25;;;19.67;45.47
64632;BME280;58358;50.936;0.246;2022-07-06T10:03:26;102167.84;;;19.98;45.39
64632;BME280;58358;50.936;0.246;2022-07-06T10:05:52;102164.52;;;19.38;47.74
64632;BME280;58358;50.936;0.246;2022-07-06T10:08:17;102163.92;;;20.48;45.38
64632;BME280;58358;50.936;0.246;2022-07-06T10:10:43;102161.63;;;21.60;42.41
64632;BME280;58358;50.936;0.246;2022-07-06T10:13:09;102170.24;;;20.81;44.16
64632;BME280;58358;50.936;0.246;2022-07-06T10:15:35;102168.48;;;20.28;45.60
64632;BME280;58358;50.936;0.246;2022-07-06T10:18:00;102166.33;;;21.08;44.37
64632;BME280;58358;50.936;0.246;2022-07-06T10:20:28;102164.56;;;20.17;45.53
64632;BME280;58358;50.936;0.246;2022-07-06T10:22:51;102164.71;;;19.56;46.47
64632;BME280;58358;50.936;0.246;2022-07-06T10:25:16;102162.49;;;19.83;46.42
64632;BME280;58358;50.936;0.246;2022-07-06T10:27:42;102163.93;;;19.28;47.56
64632;BME280;58358;50.936;0.246;2022-07-06T10:30:08;102160.17;;;19.62;46.65
64632;BME280;58358;50.936;0.246;2022-07-06T10:32:33;102155.36;;;19.86;47.23
64632;BME280;58358;50.936;0.246;2022-07-06T10:34:58;102155.56;;;20.00;47.72
64632;BME280;58358;50.936;0.246;2022-07-06T10:37:25;102155.61;;;19.60;47.58
64632;BME280;58358;50.936;0.246;2022-07-06T10:39:49;102162.92;;;19.27;47.80
64632;BME280;58358;50.936;0.246;2022-07-06T10:44:44;102166.79;;;19.92;46.75
64632;BME280;58358;50.936;0.246;2022-07-06T10:47:06;102163.02;;;19.81;47.68
64632;BME280;58358;50.936;0.246;2022-07-06T10:49:31;102157.67;;;19.99;47.59
64632;BME280;58358;50.936;0.246;2022-07-06T10:51:57;102156.69;;;18.73;49.65
64632;BME280;58358;50.936;0.246;2022-07-06T10:54:23;102158.79;;;21.58;43.87
64632;BME280;58358;50.936;0.246;2022-07-06T10:56:50;102163.67;;;20.37;44.54
64632;BME280;58358;50.936;0.246;2022-07-06T10:59:15;102159.41;;;21.88;42.75
64632;BME280;58358;50.936;0.246;2022-07-06T11:01:40;102163.55;;;20.48;44.49
64632;BME280;58358;50.936;0.246;2022-07-06T11:04:07;102155.66;;;21.15;43.91
64632;BME280;58358;50.936;0.246;2022-07-06T11:06:33;102152.98;;;21.11;43.70
64632;BME280;58358;50.936;0.246;2022-07-06T11:08:57;102153.47;;;22.03;41.91
64632;BME280;58358;50.936;0.246;2022-07-06T11:11:24;102148.28;;;22.05;42.42
64632;BME280;58358;50.936;0.246;2022-07-06T11:13:51;102147.52;;;21.21;43.63
64632;BME280;58358;50.936;0.246;2022-07-06T11:16:14;102160.35;;;20.69;45.16
64632;BME280;58358;50.936;0.246;2022-07-06T11:18:40;102156.65;;;20.61;45.68
64632;BME280;58358;50.936;0.246;2022-07-06T11:21:15;102152.77;;;20.65;45.95
64632;BME280;58358;50.936;0.246;2022-07-06T11:23:30;102149.07;;;20.72;44.30
64632;BME280;58358;50.936;0.246;2022-07-06T11:25:55;102136.72;;;21.16;44.23
64632;BME280;58358;50.936;0.246;2022-07-06T11:28:21;102139.73;;;20.90;44.94
64632;BME280;58358;50.936;0.246;2022-07-06T11:30:47;102130.35;;;21.30;43.87
64632;BME280;58358;50.936;0.246;2022-07-06T11:35:38;102129.98;;;21.90;42.52
64632;BME280;58358;50.936;0.246;2022-07-06T11:40:28;102122.08;;;20.48;44.19
64632;BME280;58358;50.936;0.246;2022-07-06T11:42:54;102121.54;;;20.03;45.43
64632;BME280;58358;50.936;0.246;2022-07-06T11:45:25;102115.69;;;21.98;42.22
64632;BME280;58358;50.936;0.246;2022-07-06T11:47:45;102112.09;;;22.96;40.69
64632;BME280;58358;50.936;0.246;2022-07-06T11:50:19;102108.52;;;22.61;41.21
64632;BME280;58358;50.936;0.246;2022-07-06T11:52:37;102115.48;;;22.85;40.11
64632;BME280;58358;50.936;0.246;2022-07-06T11:55:02;102121.50;;;22.96;39.98
64632;BME280;58358;50.936;0.246;2022-07-06T11:57:30;102122.02;;;21.57;42.48
64632;BME280;58358;50.936;0.246;2022-07-06T11:59:53;102121.85;;;21.68;43.13
64632;BME280;58358;50.936;0.246;2022-07-06T12:02:18;102116.53;;;21.55;43.06
64632;BME280;58358;50.936;0.246;2022-07-06T12:04:45;102118.89;;;21.83;42.08
64632;BME280;58358;50.936;0.246;2022-07-06T12:07:11;102116.33;;;21.35;43.24
64632;BME280;58358;50.936;0.246;2022-07-06T12:09:36;102111.18;;;21.02;43.27
64632;BME280;58358;50.936;0.246;2022-07-06T12:12:01;102109.27;;;21.93;41.79
64632;BME280;58358;50.936;0.246;2022-07-06T12:14:25;102111.97;;;22.27;40.65
64632;BME280;58358;50.936;0.246;2022-07-06T12:16:51;102114.09;;;21.94;41.34
64632;BME280;58358;50.936;0.246;2022-07-06T12:19:16;102119.00;;;20.60;44.65
64632;BME280;58358;50.936;0.246;2022-07-06T12:21:44;102110.50;;;22.71;40.58
64632;BME280;58358;50.936;0.246;2022-07-06T12:24:07;102115.24;;;22.73;39.79
64632;BME280;58358;50.936;0.246;2022-07-06T12:26:39;102113.45;;;21.18;42.80
64632;BME280;58358;50.936;0.246;2022-07-06T12:29:02;102116.77;;;22.31;41.08
64632;BME280;58358;50.936;0.246;2022-07-06T12:31:31;102108.99;;;21.70;42.05
64632;BME280;58358;50.936;0.246;2022-07-06T12:33:56;102111.23;;;22.05;41.11
64632;BME280;58358;50.936;0.246;2022-07-06T12:36:15;102107.90;;;22.30;40.64
64632;BME280;58358;50.936;0.246;2022-07-06T12:38:46;102104.41;;;23.31;39.08
64632;BME280;58358;50.936;0.246;2022-07-06T12:41:06;102104.79;;;23.51;38.98
64632;BME280;58358;50.936;0.246;2022-07-06T12:43:35;102102.40;;;23.08;38.92
64632;BME280;58358;50.936;0.246;2022-07-06T12:45:57;102099.97;;;21.77;41.53
64632;BME280;58358;50.936;0.246;2022-07-06T12:48:22;102099.02;;;21.88;42.14